»·PEaware :: WAT380 KSAN-KSBA

WAT380 :: KSAN-KSBA

FLIGHT INFORMATION

Flight Status: Arrived
Operator:
Walker Air Transport
More flights by this operator :: More flights under this callsign
Pilot: Spencer M. (27733)
Aircraft: CESSNA 310
(C310)
More flights by this aircraft type
Origin: KSAN San Diego Intl-Lindbergh
United States
Destination: KSBA Santa Barbara Mun
United States
More flights between these airports :: More routes between these airports
Route: OCN V23 LAX V299 VTU VTU282R KWANG
File this flight plan on PilotEdge
Remarks: TEC Route SANP35
Altitude:
(Current/Filed)
6,000ft
Speed:
(Current/Filed)
180kts
Departed: 17-Oct-20 08:36 AM
Arrived: 17-Oct-20 09:47 AM
Distance/Time
Traveled:
167nm/1:11
Distance/Time
To Go:
Arrived

Flight Plot

Page will automatically refresh every two minutes.


Map Options




Map Legend


Flown Route
Filed Route
Departure Airport
Arrival Airport
Navaid (VOR, NDB)
Fix

Horizontal Profiles

Position Reports

Time Latitude Longitude Heading Altitude Ground
Speed
17-Oct-20 08:22 32.733449 -117.178643 17 20ft 0kts
17-Oct-20 08:23 32.733449 -117.178643 17 20ft 0kts
17-Oct-20 08:24 32.733449 -117.178643 17 20ft 0kts
17-Oct-20 08:25 32.733449 -117.178643 17 20ft 0kts
17-Oct-20 08:26 32.733449 -117.178643 17 20ft 0kts
17-Oct-20 08:26 32.733449 -117.178643 17 20ft 0kts
17-Oct-20 08:28 32.733449 -117.178643 17 20ft 0kts
17-Oct-20 08:28 32.733449 -117.178643 17 20ft 0kts
17-Oct-20 08:30 32.733449 -117.178643 17 20ft 0kts
17-Oct-20 08:30 32.733512 -117.178626 6 20ft 2kts
17-Oct-20 08:32 32.732215 -117.179033 100 21ft 12kts
17-Oct-20 08:32 32.731028 -117.175603 144 20ft 6kts
17-Oct-20 08:33 32.730903 -117.175499 145 20ft 0kts
17-Oct-20 08:34 32.730231 -117.175383 225 21ft 8kts
17-Oct-20 08:35 32.737032 -117.202701 297 534ft 145kts
17-Oct-20 08:36 32.771014 -117.236733 321 1539ft 161kts
17-Oct-20 08:37 32.807035 -117.270894 320 1980ft 177kts
17-Oct-20 08:38 32.846153 -117.308199 320 2329ft 169kts
17-Oct-20 08:39 32.881363 -117.341852 321 3420ft 157kts
17-Oct-20 08:40 32.922945 -117.355310 348 4517ft 155kts
17-Oct-20 08:41 32.965774 -117.361892 351 5613ft 156kts
17-Oct-20 08:42 33.012035 -117.370214 350 5967ft 184kts
17-Oct-20 08:43 33.064109 -117.380441 350 5963ft 192kts
17-Oct-20 08:44 33.116895 -117.391222 350 5989ft 192kts
17-Oct-20 08:45 33.170398 -117.390357 353 5984ft 193kts
17-Oct-20 08:46 33.220655 -117.411654 343 5996ft 192kts
17-Oct-20 08:47 33.261499 -117.450963 313 6000ft 193kts
17-Oct-20 08:48 33.298749 -117.496821 316 6000ft 192kts
17-Oct-20 08:49 33.336602 -117.542266 320 5997ft 192kts
17-Oct-20 08:50 33.378738 -117.581743 323 6000ft 194kts
17-Oct-20 08:51 33.420815 -117.622272 317 6001ft 194kts
17-Oct-20 08:52 33.460371 -117.666612 317 6005ft 194kts
17-Oct-20 08:53 33.499977 -117.711087 317 6011ft 195kts
17-Oct-20 08:54 33.539515 -117.755490 317 6015ft 195kts
17-Oct-20 08:55 33.578611 -117.800878 316 6017ft 196kts
17-Oct-20 08:56 33.617842 -117.846512 316 6018ft 196kts
17-Oct-20 08:57 33.656968 -117.892015 316 6016ft 196kts
17-Oct-20 08:58 33.690088 -117.943095 298 6012ft 197kts
17-Oct-20 08:59 33.715931 -118.001131 299 6012ft 197kts
17-Oct-20 09:00 33.742173 -118.059078 299 6009ft 197kts
17-Oct-20 09:01 33.768913 -118.116354 302 6005ft 197kts
17-Oct-20 09:02 33.797596 -118.172923 303 5999ft 198kts
17-Oct-20 09:03 33.825956 -118.230018 303 5994ft 200kts
17-Oct-20 09:04 33.855028 -118.287417 304 5991ft 202kts
17-Oct-20 09:05 33.885744 -118.344231 303 5992ft 202kts
17-Oct-20 09:06 33.915923 -118.402967 304 5996ft 203kts
17-Oct-20 09:07 33.939035 -118.464943 290 6002ft 204kts
17-Oct-20 09:08 33.958389 -118.529069 295 6002ft 203kts
17-Oct-20 09:09 33.980077 -118.591920 295 5991ft 202kts
17-Oct-20 09:10 34.001931 -118.653572 294 6003ft 200kts
17-Oct-20 09:11 34.023805 -118.715242 294 5998ft 200kts
17-Oct-20 09:12 34.044275 -118.777688 290 5993ft 200kts
17-Oct-20 09:13 34.061865 -118.841153 290 5982ft 199kts
17-Oct-20 09:14 34.078715 -118.904802 285 6001ft 198kts
17-Oct-20 09:15 34.093157 -118.969184 286 6005ft 199kts
17-Oct-20 09:16 34.107874 -119.033765 286 6007ft 199kts
17-Oct-20 09:17 34.132808 -119.093272 295 6005ft 199kts
17-Oct-20 09:18 34.158220 -119.153019 298 6002ft 200kts
17-Oct-20 09:19 34.184075 -119.212484 298 6000ft 198kts
17-Oct-20 09:20 34.208362 -119.268796 296 5998ft 184kts
17-Oct-20 09:21 34.230140 -119.323609 296 5996ft 174kts
17-Oct-20 09:22 34.250396 -119.374733 296 5999ft 166kts
17-Oct-20 09:23 34.270332 -119.425021 296 5946ft 168kts
17-Oct-20 09:24 34.290585 -119.476019 296 5376ft 168kts
17-Oct-20 09:25 34.291359 -119.532366 268 4776ft 169kts
17-Oct-20 09:26 34.289762 -119.588914 269 4175ft 167kts
17-Oct-20 09:27 34.288626 -119.644169 269 3993ft 161kts
17-Oct-20 09:28 34.287519 -119.698958 269 3993ft 164kts
17-Oct-20 09:29 34.286424 -119.754197 269 3991ft 165kts
17-Oct-20 09:30 34.285334 -119.810069 269 3991ft 167kts
17-Oct-20 09:31 34.284039 -119.866391 265 3990ft 167kts
17-Oct-20 09:32 34.278954 -119.922482 264 3990ft 168kts
17-Oct-20 09:33 34.273820 -119.978507 264 3990ft 168kts
17-Oct-20 09:34 34.268097 -120.034490 263 3996ft 167kts
17-Oct-20 09:35 34.276496 -120.083174 348 3852ft 164kts
17-Oct-20 09:36 34.320586 -120.086377 357 3511ft 150kts
17-Oct-20 09:37 34.360038 -120.088915 357 3538ft 140kts
17-Oct-20 09:38 34.398630 -120.089809 0 3543ft 140kts
17-Oct-20 09:39 34.421551 -120.058445 83 3235ft 150kts
17-Oct-20 09:40 34.424524 -120.009964 89 2362ft 129kts
17-Oct-20 09:41 34.425407 -119.973108 79 1670ft 98kts
17-Oct-20 09:42 34.425656 -119.940419 88 1026ft 95kts
17-Oct-20 09:43 34.426575 -119.908961 87 785ft 91kts
17-Oct-20 09:44 34.426978 -119.879376 87 470ft 84kts
17-Oct-20 09:45 34.427602 -119.851724 89 21ft 72kts
17-Oct-20 09:46 34.428214 -119.846262 57 17ft 8kts
17-Oct-20 09:47 34.429797 -119.842146 64 17ft 10kts
17-Oct-20 09:48 34.431811 -119.836670 36 17ft 16kts

Navigation Log

Ident Type
Flight plan parsing failed, navigation log unavailable